Terminal Aerodrome Forecast
Issued by NWS

Home | Current Version | Previous Version | Text Only | Print | Product List | Glossary On
Versions: 1 2 3 4 5 6 7 8 9 10 11 12 13
580
FTUS42 KMLB 211736
TAFISM
TAF
KISM 211736Z 2118/2218 09016G25KT P6SM VCSH SCT035 BKN050
     FM220000 08012KT P6SM VCSH SCT030 BKN040
     FM220300 08010KT P6SM VCSH SCT015 BKN025
      TEMPO 2208/2212 BKN012
     FM221400 10012KT P6SM VCSH SCT025 BKN035=

USA.gov is the U.S. government's official web portal to all federal, state and local government web resources and services.